KESN

Easton / Newnam Field Airport

Easton, Maryland, USA
METAR KESN 181950Z 00000KT 10SM SCT120 13/02 A3005
Observed Flight Rules
Dec-18 @ 19:50 UTC (30 minutes ago) Visual Flight Rules
Wind Visibility Clouds
Calm 10 miles
  • Scattered at 12,000' AGL
Temperatures Readings
Current 13°C / 55°F
Dewpoint 2°C / 36°F
Humidity 47%
Altimeter 30.05" Hg
Pressure 1018 hPa
Elevation 22
METAR KESN 181950Z 00000KT 10SM SCT120 13/02 A3005
Observed Flight Rules
Dec-18 @ 19:50 UTC
(30 minutes ago)
VFR
Wind Visibility
Calm 10 miles
Clouds
  • Scattered at 12,000' AGL
Temperature Dewpoint
13°C / 55°F 2°C / 36°F
Humidity Altimeter Pressure
47% 30.05" Hg 1018 hPa